createdAt,value
2018-05-14T00:02:24.117Z,13.63
2018-05-14T00:04:51.650Z,13.67
2018-05-14T00:07:19.184Z,13.33
2018-05-14T00:09:46.673Z,13.70
2018-05-14T00:12:14.141Z,14.77
2018-05-14T00:14:41.640Z,13.87
2018-05-14T00:17:09.182Z,13.80
2018-05-14T00:19:36.671Z,13.33
2018-05-14T00:22:04.159Z,13.27
2018-05-14T00:24:31.667Z,13.87
2018-05-14T00:26:59.187Z,14.47
2018-05-14T00:29:26.721Z,14.73
2018-05-14T00:31:54.195Z,13.00
2018-05-14T00:34:21.758Z,14.57
2018-05-14T00:36:49.302Z,14.57
2018-05-14T00:39:16.803Z,15.40
2018-05-14T00:41:44.324Z,14.07
2018-05-14T00:44:11.839Z,15.00
2018-05-14T00:46:39.436Z,15.07
2018-05-14T00:49:06.950Z,14.77
2018-05-14T00:51:34.462Z,15.10
2018-05-14T00:54:01.939Z,15.60
2018-05-14T00:56:29.416Z,15.03
2018-05-14T00:58:56.931Z,14.40
2018-05-14T01:01:24.416Z,14.37
2018-05-14T01:03:51.906Z,14.50
2018-05-14T01:06:19.452Z,13.23
2018-05-14T01:08:46.947Z,13.43
2018-05-14T01:11:14.434Z,13.37
2018-05-14T01:13:41.937Z,13.23
2018-05-14T01:16:09.463Z,13.80
2018-05-14T01:18:36.977Z,13.20
2018-05-14T01:21:04.475Z,13.20
2018-05-14T01:23:31.949Z,13.23
2018-05-14T01:25:59.454Z,14.00
2018-05-14T01:28:26.949Z,13.53
2018-05-14T01:30:54.442Z,12.83
2018-05-14T01:33:22.007Z,13.27
2018-05-14T01:35:49.513Z,13.23
2018-05-14T01:38:17.017Z,13.73
2018-05-14T01:40:44.562Z,12.97
2018-05-14T01:43:12.101Z,12.70
2018-05-14T01:45:39.676Z,13.37
2018-05-14T01:48:07.181Z,12.10
2018-05-14T01:50:34.747Z,13.53
2018-05-14T01:53:02.219Z,12.67
2018-05-14T01:55:29.683Z,12.50
2018-05-14T01:57:57.184Z,13.03
2018-05-14T02:00:24.727Z,12.00
2018-05-14T02:02:52.218Z,11.67
2018-05-14T02:05:19.714Z,11.80
2018-05-14T02:07:47.257Z,12.07
2018-05-14T02:10:14.731Z,11.57
2018-05-14T02:12:42.234Z,10.63
2018-05-14T02:15:09.836Z,10.70
2018-05-14T02:17:37.345Z,9.90
2018-05-14T02:20:04.851Z,11.47
2018-05-14T02:22:32.328Z,10.67
2018-05-14T02:24:59.836Z,10.80
2018-05-14T02:27:27.351Z,10.07
2018-05-14T02:29:54.826Z,10.10
2018-05-14T02:32:22.301Z,9.90
2018-05-14T02:34:49.827Z,10.37
2018-05-14T02:37:17.375Z,10.83
2018-05-14T02:39:44.892Z,10.43
2018-05-14T02:42:12.401Z,10.97
2018-05-14T02:44:41.190Z,10.37
2018-05-14T02:47:08.688Z,10.20
2018-05-14T02:49:36.175Z,9.60
2018-05-14T02:52:03.694Z,9.80
2018-05-14T02:54:31.276Z,9.50
2018-05-14T02:56:58.818Z,9.30
2018-05-14T02:59:26.302Z,9.33
2018-05-14T03:01:53.841Z,9.43
2018-05-14T03:04:21.377Z,8.40
2018-05-14T03:06:48.916Z,9.80
2018-05-14T03:09:16.485Z,9.70
2018-05-14T03:11:43.986Z,7.70
2018-05-14T03:14:11.502Z,7.50
2018-05-14T03:16:39.027Z,8.40
2018-05-14T03:19:06.519Z,8.37
2018-05-14T03:21:34.054Z,7.83
2018-05-14T03:24:01.584Z,7.83
2018-05-14T03:26:29.087Z,7.83
2018-05-14T03:28:56.615Z,7.63
2018-05-14T03:31:24.152Z,7.90
2018-05-14T03:33:51.628Z,7.77
2018-05-14T03:36:19.116Z,7.13
2018-05-14T03:38:47.283Z,7.30
2018-05-14T03:41:14.779Z,7.10
2018-05-14T03:43:42.279Z,7.27
2018-05-14T03:46:09.749Z,7.10
2018-05-14T03:48:37.271Z,7.07
2018-05-14T03:51:04.791Z,6.80
2018-05-14T03:53:32.269Z,7.17
2018-05-14T03:55:59.748Z,5.90
2018-05-14T03:58:39.034Z,6.77
2018-05-14T04:01:13.275Z,7.10
2018-05-14T04:03:52.488Z,6.30
2018-05-14T04:06:31.599Z,6.17
2018-05-14T04:08:59.202Z,6.33
2018-05-14T04:11:26.761Z,6.93
2018-05-14T04:13:55.199Z,6.27
2018-05-14T04:16:22.681Z,6.70
2018-05-14T04:18:50.182Z,6.53
2018-05-14T04:21:17.682Z,5.93
2018-05-14T04:23:45.189Z,7.03
2018-05-14T04:26:12.682Z,6.17
2018-05-14T04:28:40.214Z,6.53
2018-05-14T04:31:07.695Z,6.20
2018-05-14T04:33:35.195Z,6.40
2018-05-14T04:36:02.707Z,6.10
2018-05-14T04:38:30.174Z,6.70
2018-05-14T04:40:57.677Z,6.77
2018-05-14T04:43:25.175Z,5.83
2018-05-14T04:45:52.665Z,5.83
2018-05-14T04:48:20.169Z,5.80
2018-05-14T04:50:48.378Z,6.23
2018-05-14T04:53:15.834Z,6.57
2018-05-14T04:55:43.327Z,6.60
2018-05-14T04:58:10.834Z,5.50
2018-05-14T05:00:38.314Z,5.30
2018-05-14T05:03:05.796Z,5.43
2018-05-14T05:05:33.331Z,5.63
2018-05-14T05:08:00.813Z,6.07
2018-05-14T05:10:28.322Z,5.73
2018-05-14T05:12:55.841Z,5.63
2018-05-14T05:15:23.356Z,5.40
2018-05-14T05:17:50.867Z,5.23
2018-05-14T05:20:18.343Z,4.40
2018-05-14T05:22:45.888Z,4.60
2018-05-14T05:25:13.427Z,5.10
2018-05-14T05:27:40.904Z,5.00
2018-05-14T05:30:08.506Z,4.80
2018-05-14T05:32:36.006Z,5.03
2018-05-14T05:35:03.547Z,4.97
2018-05-14T05:37:31.024Z,4.70
2018-05-14T05:39:58.519Z,5.07
2018-05-14T05:42:26.045Z,5.10
2018-05-14T05:44:53.552Z,5.07
2018-05-14T05:47:21.054Z,5.30
2018-05-14T05:49:48.587Z,5.03
2018-05-14T05:52:16.115Z,5.73
2018-05-14T05:54:43.662Z,5.43
2018-05-14T05:57:11.127Z,5.10
2018-05-14T05:59:38.669Z,5.73
2018-05-14T06:02:06.182Z,5.37
2018-05-14T06:04:33.653Z,4.77
2018-05-14T06:07:01.182Z,4.67
2018-05-14T06:09:28.751Z,4.33
2018-05-14T06:11:56.206Z,4.70
2018-05-14T06:14:23.691Z,4.87
2018-05-14T06:16:51.223Z,4.83
2018-05-14T06:19:18.733Z,5.43
2018-05-14T06:21:46.245Z,4.60
2018-05-14T06:24:13.817Z,4.90
2018-05-14T06:26:41.340Z,5.13
2018-05-14T06:29:08.859Z,4.87
2018-05-14T06:31:36.391Z,5.43
2018-05-14T06:34:03.971Z,5.70
2018-05-14T06:36:31.454Z,4.40
2018-05-14T06:38:58.940Z,5.33
2018-05-14T06:41:26.419Z,5.90
2018-05-14T06:43:53.898Z,4.90
2018-05-14T06:46:21.415Z,4.70
2018-05-14T06:48:48.903Z,4.83
2018-05-14T06:51:17.025Z,4.20
2018-05-14T06:53:44.593Z,4.70
2018-05-14T06:56:12.109Z,5.20
2018-05-14T06:58:39.616Z,4.63
2018-05-14T07:01:07.091Z,5.73
2018-05-14T07:03:34.557Z,5.07
2018-05-14T07:06:02.062Z,4.50
2018-05-14T07:08:29.678Z,4.60
2018-05-14T07:10:57.219Z,4.90
2018-05-14T07:13:24.704Z,5.07
2018-05-14T07:15:52.194Z,4.97
2018-05-14T07:18:19.698Z,4.50
2018-05-14T07:20:47.223Z,4.00
2018-05-14T07:23:14.699Z,4.27
2018-05-14T07:25:42.183Z,4.60
2018-05-14T07:28:09.702Z,4.50
2018-05-14T07:30:37.199Z,4.80
2018-05-14T07:33:04.725Z,4.27
2018-05-14T07:35:32.342Z,4.27
2018-05-14T07:37:59.758Z,4.33
2018-05-14T07:40:27.287Z,4.30
2018-05-14T07:42:54.757Z,4.70
2018-05-14T07:45:22.220Z,4.53
2018-05-14T07:47:49.714Z,4.10
2018-05-14T07:50:17.248Z,4.23
2018-05-14T07:52:44.783Z,4.33
2018-05-14T07:55:12.477Z,3.87
2018-05-14T07:57:41.630Z,4.37
2018-05-14T08:00:09.163Z,3.80
2018-05-14T08:02:36.649Z,4.03
2018-05-14T08:05:04.735Z,3.80
2018-05-14T08:07:32.191Z,3.67
2018-05-14T08:09:59.712Z,4.40
2018-05-14T08:12:27.178Z,4.23
2018-05-14T08:14:54.666Z,3.93
2018-05-14T08:17:22.189Z,4.20
2018-05-14T08:19:49.652Z,4.27
2018-05-14T08:22:17.126Z,4.97
2018-05-14T08:24:44.616Z,3.87
2018-05-14T08:27:12.082Z,3.70
2018-05-14T08:29:39.607Z,4.40
2018-05-14T08:32:07.040Z,4.20
2018-05-14T08:34:34.519Z,4.93
2018-05-14T08:37:02.051Z,3.90
2018-05-14T08:39:29.599Z,4.27
2018-05-14T08:41:57.094Z,3.83
2018-05-14T08:44:24.651Z,4.37
2018-05-14T08:46:52.134Z,4.27
2018-05-14T08:49:19.649Z,4.40
2018-05-14T08:51:47.191Z,4.17
2018-05-14T08:54:14.851Z,4.77
2018-05-14T08:56:42.178Z,4.27
2018-05-14T08:59:09.658Z,4.50
2018-05-14T09:01:37.202Z,4.17
2018-05-14T09:04:04.734Z,4.30
2018-05-14T09:06:32.231Z,4.90
2018-05-14T09:08:59.732Z,5.13
2018-05-14T09:11:27.231Z,4.70
2018-05-14T09:13:55.415Z,4.10
2018-05-14T09:16:22.933Z,5.10
2018-05-14T09:18:50.414Z,5.00
2018-05-14T09:21:17.877Z,4.00
2018-05-14T09:23:45.453Z,3.97
2018-05-14T09:26:12.996Z,4.70
2018-05-14T09:28:40.485Z,4.47
2018-05-14T09:31:08.004Z,4.57
2018-05-14T09:33:36.035Z,4.33
2018-05-14T09:36:03.590Z,4.67
2018-05-14T09:38:31.094Z,4.80
2018-05-14T09:40:58.575Z,4.40
2018-05-14T09:43:26.084Z,4.57
2018-05-14T09:45:53.569Z,4.93
2018-05-14T09:48:21.064Z,4.77
2018-05-14T09:50:48.592Z,5.10
2018-05-14T09:53:16.177Z,4.70
2018-05-14T09:55:43.719Z,5.00
2018-05-14T09:58:11.271Z,4.70
2018-05-14T10:00:38.804Z,5.07
2018-05-14T10:03:06.361Z,4.97
2018-05-14T10:05:33.862Z,4.03
2018-05-14T10:08:01.426Z,5.17
2018-05-14T10:10:28.918Z,4.87
2018-05-14T10:12:56.480Z,5.03
2018-05-14T10:15:23.983Z,4.97
2018-05-14T10:17:51.474Z,5.13
2018-05-14T10:20:18.947Z,4.53
2018-05-14T10:22:46.406Z,4.67
2018-05-14T10:25:13.876Z,4.80
2018-05-14T10:27:41.389Z,3.80
2018-05-14T10:30:08.856Z,4.70
2018-05-14T10:32:36.339Z,4.23
2018-05-14T10:35:03.814Z,4.97
2018-05-14T10:37:31.290Z,5.00
2018-05-14T10:39:58.806Z,4.33
2018-05-14T10:42:26.679Z,4.90
2018-05-14T10:44:54.179Z,4.83
2018-05-14T10:47:21.747Z,4.87
2018-05-14T10:49:49.227Z,5.57
2018-05-14T10:52:16.714Z,5.00
2018-05-14T10:54:44.260Z,4.70
2018-05-14T10:57:11.742Z,4.80
2018-05-14T10:59:39.243Z,5.00
2018-05-14T11:02:06.861Z,5.27
2018-05-14T11:04:34.323Z,4.70
2018-05-14T11:07:01.834Z,4.47
2018-05-14T11:09:29.389Z,4.97
2018-05-14T11:11:56.867Z,4.57
2018-05-14T11:14:24.345Z,4.63
2018-05-14T11:16:51.996Z,4.50
2018-05-14T11:19:19.482Z,4.97
2018-05-14T11:21:46.981Z,4.57
2018-05-14T11:24:14.484Z,4.70
2018-05-14T11:26:41.977Z,4.90
2018-05-14T11:29:09.449Z,5.03
2018-05-14T11:31:36.975Z,6.93
2018-05-14T11:34:04.490Z,4.90
2018-05-14T11:36:31.977Z,5.17
2018-05-14T11:38:59.464Z,5.43
2018-05-14T11:41:27.111Z,4.83
2018-05-14T11:43:54.651Z,4.30
2018-05-14T11:46:22.168Z,4.73
2018-05-14T11:48:49.673Z,5.43
2018-05-14T11:51:17.290Z,5.93
2018-05-14T11:53:44.783Z,4.47
2018-05-14T11:56:12.293Z,6.00
2018-05-14T11:58:39.763Z,5.50
2018-05-14T12:01:07.243Z,5.63
2018-05-14T12:03:34.760Z,4.93
2018-05-14T12:06:02.311Z,5.70
2018-05-14T12:08:29.827Z,5.03
2018-05-14T12:10:57.315Z,5.10
2018-05-14T12:13:24.798Z,5.70
2018-05-14T12:15:52.303Z,4.90
2018-05-14T12:18:19.808Z,4.93
2018-05-14T12:20:47.369Z,5.60
2018-05-14T12:23:14.871Z,5.17
2018-05-14T12:25:42.372Z,5.63
2018-05-14T12:28:09.911Z,5.17
2018-05-14T12:30:37.449Z,5.40
2018-05-14T12:33:04.977Z,5.80
2018-05-14T12:35:32.493Z,6.00
2018-05-14T12:38:00.037Z,6.20
2018-05-14T12:40:27.559Z,4.90
2018-05-14T12:42:55.056Z,4.90
2018-05-14T12:45:22.556Z,5.10
2018-05-14T12:47:50.036Z,5.50
2018-05-14T12:50:17.560Z,4.80
2018-05-14T12:52:45.190Z,4.50
2018-05-14T12:55:12.704Z,4.90
2018-05-14T12:57:40.225Z,4.80
2018-05-14T13:00:07.761Z,4.50
2018-05-14T13:02:35.259Z,4.37
2018-05-14T13:05:02.751Z,5.10
2018-05-14T13:07:30.268Z,4.63
2018-05-14T13:09:57.832Z,5.00
2018-05-14T13:12:25.387Z,4.40
2018-05-14T13:14:52.881Z,4.60
2018-05-14T13:17:20.397Z,4.63
2018-05-14T13:19:47.904Z,4.40
2018-05-14T13:22:15.401Z,4.10
2018-05-14T13:24:42.928Z,4.60
2018-05-14T13:27:10.419Z,4.73
2018-05-14T13:29:37.902Z,4.00
2018-05-14T13:32:05.390Z,4.27
2018-05-14T13:34:32.852Z,4.13
2018-05-14T13:37:00.370Z,4.47
2018-05-14T13:39:27.870Z,5.10
2018-05-14T13:41:55.340Z,5.10
2018-05-14T13:44:22.872Z,5.07
2018-05-14T13:46:50.354Z,4.57
2018-05-14T13:49:17.976Z,4.67
2018-05-14T13:51:45.508Z,4.77
2018-05-14T13:54:12.963Z,4.70
2018-05-14T13:56:40.513Z,4.57
2018-05-14T13:59:08.009Z,4.97
2018-05-14T14:01:35.494Z,4.73
2018-05-14T14:04:03.036Z,4.90
2018-05-14T14:06:30.591Z,5.80
2018-05-14T14:08:58.057Z,5.43
2018-05-14T14:11:25.609Z,4.93
2018-05-14T14:13:53.089Z,5.30
2018-05-14T14:16:20.588Z,5.83
2018-05-14T14:18:48.056Z,5.10
2018-05-14T14:21:15.550Z,5.13
2018-05-14T14:23:43.223Z,5.43
2018-05-14T14:26:10.561Z,5.20
2018-05-14T14:28:38.070Z,6.00
2018-05-14T14:31:05.560Z,5.50
2018-05-14T14:33:33.020Z,5.70
2018-05-14T14:36:00.507Z,5.87
2018-05-14T14:38:27.965Z,6.00
2018-05-14T14:40:55.529Z,5.43
2018-05-14T14:43:23.053Z,6.00
2018-05-14T14:45:50.534Z,4.83
2018-05-14T14:48:18.028Z,5.40
2018-05-14T14:50:45.582Z,5.50
2018-05-14T14:53:13.043Z,6.40
2018-05-14T14:55:40.508Z,5.20
2018-05-14T14:58:07.982Z,5.77
2018-05-14T15:00:35.442Z,5.40
2018-05-14T15:03:02.906Z,5.90
2018-05-14T15:05:30.408Z,5.10
2018-05-14T15:07:57.887Z,5.57
2018-05-14T15:10:25.675Z,6.00
2018-05-14T15:12:53.168Z,5.20
2018-05-14T15:15:20.655Z,5.30
2018-05-14T15:17:48.163Z,6.20
2018-05-14T15:20:15.630Z,5.97
2018-05-14T15:22:43.155Z,5.47
2018-05-14T15:25:10.647Z,5.53
2018-05-14T15:27:38.182Z,5.80
2018-05-14T15:30:05.746Z,5.37
2018-05-14T15:32:33.238Z,5.17
2018-05-14T15:35:00.719Z,5.67
2018-05-14T15:37:28.233Z,5.30
2018-05-14T15:39:55.691Z,5.60
2018-05-14T15:42:23.176Z,5.33
2018-05-14T15:44:50.651Z,6.10
2018-05-14T15:47:18.136Z,6.00
2018-05-14T15:49:45.639Z,6.80
2018-05-14T15:52:13.136Z,5.13
2018-05-14T15:54:40.621Z,5.30
2018-05-14T15:57:08.124Z,6.20
2018-05-14T15:59:35.603Z,5.43
2018-05-14T16:02:03.060Z,5.80
2018-05-14T16:04:30.523Z,6.03
2018-05-14T16:06:58.026Z,5.90
2018-05-14T16:09:25.496Z,5.83
2018-05-14T16:11:52.959Z,5.80
2018-05-14T16:14:20.414Z,6.67
2018-05-14T16:16:47.910Z,6.60
2018-05-14T16:19:15.410Z,6.53
2018-05-14T16:21:42.901Z,5.97
2018-05-14T16:24:10.413Z,6.13
2018-05-14T16:26:38.002Z,6.00
2018-05-14T16:29:05.457Z,5.70
2018-05-14T16:31:32.932Z,5.60
2018-05-14T16:34:00.444Z,5.80
2018-05-14T16:36:27.939Z,6.97
2018-05-14T16:38:55.402Z,7.63
2018-05-14T16:41:22.903Z,6.60
2018-05-14T16:43:50.364Z,5.57
2018-05-14T16:46:17.840Z,5.70
2018-05-14T16:48:45.412Z,5.67
2018-05-14T16:51:12.865Z,6.67
2018-05-14T16:53:40.362Z,6.00
2018-05-14T16:56:07.848Z,6.10
2018-05-14T16:58:35.305Z,5.77
2018-05-14T17:01:02.791Z,6.60
2018-05-14T17:03:30.257Z,5.73
2018-05-14T17:05:57.733Z,6.53
2018-05-14T17:08:25.253Z,5.63
2018-05-14T17:10:52.715Z,5.90
2018-05-14T17:13:20.194Z,5.73
2018-05-14T17:15:47.671Z,5.83
2018-05-14T17:18:15.157Z,5.60
2018-05-14T17:20:42.641Z,5.73
2018-05-14T17:23:10.132Z,6.50
2018-05-14T17:25:37.606Z,6.20
2018-05-14T17:28:05.115Z,5.60
2018-05-14T17:30:32.608Z,7.10
2018-05-14T17:33:00.102Z,7.10
2018-05-14T17:35:27.605Z,6.70
2018-05-14T17:37:55.075Z,5.70
2018-05-14T17:40:22.549Z,6.57
2018-05-14T17:42:50.054Z,5.40
2018-05-14T17:45:17.560Z,6.70
2018-05-14T17:47:45.049Z,6.57
2018-05-14T17:50:12.552Z,7.47
2018-05-14T17:52:40.003Z,6.37
2018-05-14T17:55:07.715Z,6.97
2018-05-14T17:57:35.197Z,6.90
2018-05-14T18:00:02.658Z,7.03
2018-05-14T18:02:30.200Z,6.67
2018-05-14T18:04:57.726Z,7.40
2018-05-14T18:07:25.230Z,6.67
2018-05-14T18:09:52.699Z,7.00
2018-05-14T18:12:20.192Z,6.90
2018-05-14T18:14:47.692Z,7.50
2018-05-14T18:17:15.275Z,7.50
2018-05-14T18:19:48.235Z,7.30
2018-05-14T18:22:21.338Z,7.40
2018-05-14T18:24:50.644Z,7.50
2018-05-14T18:27:23.663Z,7.33
2018-05-14T18:29:55.016Z,7.10
2018-05-14T18:32:22.496Z,7.90
2018-05-14T18:34:59.914Z,8.33
2018-05-14T18:37:27.392Z,7.60
2018-05-14T18:39:54.873Z,8.07
2018-05-14T18:42:22.461Z,7.17
2018-05-14T18:44:49.955Z,7.87
2018-05-14T18:47:17.478Z,7.90
2018-05-14T18:49:45.691Z,7.23
2018-05-14T18:52:14.440Z,7.23
2018-05-14T18:54:41.926Z,7.50
2018-05-14T18:57:09.508Z,13.70
2018-05-14T18:59:36.979Z,8.60
2018-05-14T19:02:04.565Z,8.70
2018-05-14T19:04:31.978Z,10.47
2018-05-14T19:06:59.477Z,12.33
2018-05-14T19:09:26.968Z,13.43
2018-05-14T19:11:54.486Z,9.87
2018-05-14T19:14:21.981Z,9.00
2018-05-14T19:16:55.109Z,8.30
2018-05-14T19:21:55.301Z,8.73
2018-05-14T19:24:22.776Z,8.30
2018-05-14T19:26:50.246Z,7.80
2018-05-14T19:29:23.296Z,9.00
2018-05-14T19:31:50.728Z,8.20
2018-05-14T19:34:23.947Z,8.50
2018-05-14T19:36:51.454Z,8.63
2018-05-14T19:39:24.541Z,8.20
2018-05-14T19:41:52.124Z,9.20
2018-05-14T19:44:19.593Z,9.10
2018-05-14T19:46:47.084Z,9.27
2018-05-14T19:49:16.703Z,12.33
2018-05-14T19:51:47.127Z,9.83
2018-05-14T19:54:15.035Z,9.00
2018-05-14T19:56:42.688Z,9.87
2018-05-14T19:59:11.582Z,9.73
2018-05-14T20:01:39.250Z,9.90
2018-05-14T20:04:06.976Z,10.77
2018-05-14T20:06:34.465Z,10.70
2018-05-14T20:09:01.963Z,9.93
2018-05-14T20:11:29.512Z,8.70
2018-05-14T20:13:58.438Z,7.77
2018-05-14T20:16:26.079Z,8.00
2018-05-14T20:18:53.550Z,8.70
2018-05-14T20:21:21.067Z,9.97
2018-05-14T20:23:48.577Z,9.57
2018-05-14T20:26:16.060Z,9.37
2018-05-14T20:28:43.562Z,7.87
2018-05-14T20:31:11.730Z,8.80
2018-05-14T20:33:39.208Z,8.03
2018-05-14T20:36:06.851Z,8.40
2018-05-14T20:38:34.408Z,11.90
2018-05-14T20:41:01.967Z,11.20
2018-05-14T20:43:35.056Z,10.20
2018-05-14T20:49:07.303Z,10.17
2018-05-14T20:51:34.807Z,9.07
2018-05-14T20:57:09.049Z,8.10
2018-05-14T21:02:10.126Z,9.77
2018-05-14T21:04:37.903Z,9.40
2018-05-14T21:07:06.290Z,9.80
2018-05-14T21:09:33.823Z,9.40
2018-05-14T21:12:01.372Z,10.20
2018-05-14T21:14:29.293Z,9.33
2018-05-14T21:16:56.859Z,11.00
2018-05-14T21:19:24.939Z,9.30
2018-05-14T21:21:52.418Z,8.60
2018-05-14T21:24:19.923Z,8.73
2018-05-14T21:26:47.403Z,10.40
2018-05-14T21:29:14.899Z,10.20
2018-05-14T21:31:42.424Z,9.43
2018-05-14T21:34:10.031Z,8.70
2018-05-14T21:36:37.488Z,9.73
2018-05-14T21:39:05.723Z,9.73
2018-05-14T21:41:33.200Z,10.33
2018-05-14T21:44:02.443Z,10.20
2018-05-14T21:46:30.007Z,10.00
2018-05-14T21:48:57.504Z,10.90
2018-05-14T21:51:25.002Z,10.37
2018-05-14T21:53:52.477Z,10.37
2018-05-14T21:56:19.977Z,10.33
2018-05-14T21:58:48.403Z,9.63
2018-05-14T22:01:15.886Z,10.97
2018-05-14T22:03:43.369Z,10.60
2018-05-14T22:06:12.692Z,9.53
2018-05-14T22:08:40.178Z,10.83
2018-05-14T22:11:07.661Z,11.00
2018-05-14T22:13:35.153Z,11.50
2018-05-14T22:16:02.630Z,9.57
2018-05-14T22:18:31.072Z,10.37
2018-05-14T22:20:59.321Z,10.60
2018-05-14T22:23:26.779Z,9.70
2018-05-14T22:25:54.290Z,10.13
2018-05-14T22:28:21.757Z,11.00
2018-05-14T22:30:49.236Z,10.70
2018-05-14T22:33:16.722Z,10.30
2018-05-14T22:35:44.279Z,8.90
